sensor_id;sensor_type;location;lat;lon;timestamp;P1;durP1;ratioP1;P2;durP2;ratioP2
18580;SDS011;9420;50.876;7.012;2023-06-14T00:01:40;0.43;;;0.43;;
18580;SDS011;9420;50.876;7.012;2023-06-14T00:04:10;1.03;;;0.97;;
18580;SDS011;9420;50.876;7.012;2023-06-14T00:06:39;0.40;;;0.40;;
18580;SDS011;9420;50.876;7.012;2023-06-14T00:09:07;0.40;;;0.40;;
18580;SDS011;9420;50.876;7.012;2023-06-14T00:11:35;1.30;;;1.20;;
18580;SDS011;9420;50.876;7.012;2023-06-14T00:14:02;2.00;;;1.00;;
18580;SDS011;9420;50.876;7.012;2023-06-14T00:16:29;0.63;;;0.53;;
18580;SDS011;9420;50.876;7.012;2023-06-14T00:18:58;1.17;;;1.07;;
18580;SDS011;9420;50.876;7.012;2023-06-14T00:21:25;1.97;;;1.80;;
18580;SDS011;9420;50.876;7.012;2023-06-14T00:23:54;1.27;;;0.70;;
18580;SDS011;9420;50.876;7.012;2023-06-14T00:26:22;2.10;;;0.70;;
18580;SDS011;9420;50.876;7.012;2023-06-14T00:28:51;0.30;;;0.30;;
18580;SDS011;9420;50.876;7.012;2023-06-14T00:31:18;1.60;;;1.50;;
18580;SDS011;9420;50.876;7.012;2023-06-14T00:33:45;0.83;;;0.83;;
18580;SDS011;9420;50.876;7.012;2023-06-14T00:36:13;1.73;;;1.63;;
18580;SDS011;9420;50.876;7.012;2023-06-14T00:38:40;0.93;;;0.77;;
18580;SDS011;9420;50.876;7.012;2023-06-14T00:41:09;0.70;;;0.70;;
18580;SDS011;9420;50.876;7.012;2023-06-14T00:43:36;0.80;;;0.80;;
18580;SDS011;9420;50.876;7.012;2023-06-14T00:46:03;2.37;;;1.83;;
18580;SDS011;9420;50.876;7.012;2023-06-14T00:48:30;0.30;;;0.30;;
18580;SDS011;9420;50.876;7.012;2023-06-14T00:50:59;0.87;;;0.87;;
18580;SDS011;9420;50.876;7.012;2023-06-14T00:53:29;0.80;;;0.80;;
18580;SDS011;9420;50.876;7.012;2023-06-14T00:55:59;1.40;;;1.30;;
18580;SDS011;9420;50.876;7.012;2023-06-14T00:58:27;0.87;;;0.87;;
18580;SDS011;9420;50.876;7.012;2023-06-14T01:00:55;0.73;;;0.60;;
18580;SDS011;9420;50.876;7.012;2023-06-14T01:03:23;1.17;;;0.70;;
18580;SDS011;9420;50.876;7.012;2023-06-14T01:05:50;4.80;;;0.90;;
18580;SDS011;9420;50.876;7.012;2023-06-14T01:08:28;1.03;;;1.03;;
18580;SDS011;9420;50.876;7.012;2023-06-14T01:11:10;0.20;;;0.20;;
18580;SDS011;9420;50.876;7.012;2023-06-14T01:13:45;0.50;;;0.50;;
18580;SDS011;9420;50.876;7.012;2023-06-14T01:16:13;0.37;;;0.37;;
18580;SDS011;9420;50.876;7.012;2023-06-14T01:18:41;4.67;;;1.10;;
18580;SDS011;9420;50.876;7.012;2023-06-14T01:21:19;0.77;;;0.77;;
18580;SDS011;9420;50.876;7.012;2023-06-14T01:23:48;0.40;;;0.40;;
18580;SDS011;9420;50.876;7.012;2023-06-14T01:26:18;1.77;;;1.30;;
18580;SDS011;9420;50.876;7.012;2023-06-14T01:28:46;0.80;;;0.80;;
18580;SDS011;9420;50.876;7.012;2023-06-14T01:31:16;0.80;;;0.80;;
18580;SDS011;9420;50.876;7.012;2023-06-14T01:33:46;0.13;;;0.13;;
18580;SDS011;9420;50.876;7.012;2023-06-14T01:36:16;4.00;;;2.17;;
18580;SDS011;9420;50.876;7.012;2023-06-14T01:38:45;0.40;;;0.40;;
18580;SDS011;9420;50.876;7.012;2023-06-14T01:41:14;2.57;;;1.13;;
18580;SDS011;9420;50.876;7.012;2023-06-14T01:43:43;0.67;;;0.67;;
18580;SDS011;9420;50.876;7.012;2023-06-14T01:46:13;1.70;;;0.63;;
18580;SDS011;9420;50.876;7.012;2023-06-14T01:48:42;3.47;;;0.97;;
18580;SDS011;9420;50.876;7.012;2023-06-14T01:51:10;1.00;;;1.00;;
18580;SDS011;9420;50.876;7.012;2023-06-14T01:53:37;0.40;;;0.40;;
18580;SDS011;9420;50.876;7.012;2023-06-14T01:56:06;0.37;;;0.37;;
18580;SDS011;9420;50.876;7.012;2023-06-14T01:58:35;3.43;;;0.80;;
18580;SDS011;9420;50.876;7.012;2023-06-14T02:01:02;1.73;;;1.10;;
18580;SDS011;9420;50.876;7.012;2023-06-14T02:03:30;0.97;;;0.97;;
18580;SDS011;9420;50.876;7.012;2023-06-14T02:05:57;0.57;;;0.57;;
18580;SDS011;9420;50.876;7.012;2023-06-14T02:08:24;0.40;;;0.40;;
18580;SDS011;9420;50.876;7.012;2023-06-14T02:10:52;1.27;;;1.20;;
18580;SDS011;9420;50.876;7.012;2023-06-14T02:13:19;0.70;;;0.70;;
18580;SDS011;9420;50.876;7.012;2023-06-14T02:15:48;0.83;;;0.47;;
18580;SDS011;9420;50.876;7.012;2023-06-14T02:18:18;1.20;;;1.20;;
18580;SDS011;9420;50.876;7.012;2023-06-14T02:20:45;0.23;;;0.23;;
18580;SDS011;9420;50.876;7.012;2023-06-14T02:23:12;0.47;;;0.47;;
18580;SDS011;9420;50.876;7.012;2023-06-14T02:25:40;0.73;;;0.73;;
18580;SDS011;9420;50.876;7.012;2023-06-14T02:28:08;7.93;;;1.50;;
18580;SDS011;9420;50.876;7.012;2023-06-14T02:30:35;0.90;;;0.90;;
18580;SDS011;9420;50.876;7.012;2023-06-14T02:33:04;1.93;;;1.83;;
18580;SDS011;9420;50.876;7.012;2023-06-14T02:35:31;0.87;;;0.87;;
18580;SDS011;9420;50.876;7.012;2023-06-14T02:37:58;0.30;;;0.30;;
18580;SDS011;9420;50.876;7.012;2023-06-14T02:40:26;0.67;;;0.60;;
18580;SDS011;9420;50.876;7.012;2023-06-14T02:42:53;0.73;;;0.73;;
18580;SDS011;9420;50.876;7.012;2023-06-14T02:45:20;0.40;;;0.40;;
18580;SDS011;9420;50.876;7.012;2023-06-14T02:47:47;0.83;;;0.80;;
18580;SDS011;9420;50.876;7.012;2023-06-14T02:50:16;1.90;;;1.80;;
18580;SDS011;9420;50.876;7.012;2023-06-14T02:52:43;0.90;;;0.37;;
18580;SDS011;9420;50.876;7.012;2023-06-14T02:55:11;0.63;;;0.50;;
18580;SDS011;9420;50.876;7.012;2023-06-14T02:57:38;1.60;;;0.93;;
18580;SDS011;9420;50.876;7.012;2023-06-14T03:00:06;0.57;;;0.57;;
18580;SDS011;9420;50.876;7.012;2023-06-14T03:02:36;0.50;;;0.50;;
18580;SDS011;9420;50.876;7.012;2023-06-14T03:05:04;1.33;;;1.23;;
18580;SDS011;9420;50.876;7.012;2023-06-14T03:07:34;0.67;;;0.67;;
18580;SDS011;9420;50.876;7.012;2023-06-14T03:10:06;0.57;;;0.57;;
18580;SDS011;9420;50.876;7.012;2023-06-14T03:12:34;1.60;;;0.50;;
18580;SDS011;9420;50.876;7.012;2023-06-14T03:15:02;1.47;;;1.37;;
18580;SDS011;9420;50.876;7.012;2023-06-14T03:17:29;1.70;;;1.60;;
18580;SDS011;9420;50.876;7.012;2023-06-14T03:19:58;1.43;;;0.97;;
18580;SDS011;9420;50.876;7.012;2023-06-14T03:22:26;0.63;;;0.63;;
18580;SDS011;9420;50.876;7.012;2023-06-14T03:24:55;0.40;;;0.40;;
18580;SDS011;9420;50.876;7.012;2023-06-14T03:27:22;0.83;;;0.83;;
18580;SDS011;9420;50.876;7.012;2023-06-14T03:29:49;0.50;;;0.50;;
18580;SDS011;9420;50.876;7.012;2023-06-14T03:32:16;0.70;;;0.70;;
18580;SDS011;9420;50.876;7.012;2023-06-14T03:34:44;0.50;;;0.50;;
18580;SDS011;9420;50.876;7.012;2023-06-14T03:37:11;1.07;;;1.07;;
18580;SDS011;9420;50.876;7.012;2023-06-14T03:39:38;4.27;;;1.93;;
18580;SDS011;9420;50.876;7.012;2023-06-14T03:42:12;0.87;;;0.87;;
18580;SDS011;9420;50.876;7.012;2023-06-14T03:44:40;1.33;;;0.83;;
18580;SDS011;9420;50.876;7.012;2023-06-14T03:47:07;0.50;;;0.50;;
18580;SDS011;9420;50.876;7.012;2023-06-14T03:49:35;1.87;;;1.77;;
18580;SDS011;9420;50.876;7.012;2023-06-14T03:52:03;0.93;;;0.93;;
18580;SDS011;9420;50.876;7.012;2023-06-14T03:54:30;0.20;;;0.20;;
18580;SDS011;9420;50.876;7.012;2023-06-14T03:56:58;0.10;;;0.10;;
18580;SDS011;9420;50.876;7.012;2023-06-14T03:59:27;0.60;;;0.60;;
18580;SDS011;9420;50.876;7.012;2023-06-14T04:01:54;0.87;;;0.87;;
18580;SDS011;9420;50.876;7.012;2023-06-14T04:04:22;0.70;;;0.70;;
18580;SDS011;9420;50.876;7.012;2023-06-14T04:06:53;1.63;;;1.53;;
18580;SDS011;9420;50.876;7.012;2023-06-14T04:09:21;0.63;;;0.63;;
18580;SDS011;9420;50.876;7.012;2023-06-14T04:11:50;0.83;;;0.83;;
18580;SDS011;9420;50.876;7.012;2023-06-14T04:14:18;1.50;;;0.83;;
18580;SDS011;9420;50.876;7.012;2023-06-14T04:16:47;0.93;;;0.93;;
18580;SDS011;9420;50.876;7.012;2023-06-14T04:19:15;0.60;;;0.60;;
18580;SDS011;9420;50.876;7.012;2023-06-14T04:21:43;1.20;;;1.20;;
18580;SDS011;9420;50.876;7.012;2023-06-14T04:24:10;1.53;;;1.43;;
18580;SDS011;9420;50.876;7.012;2023-06-14T04:26:38;0.30;;;0.30;;
18580;SDS011;9420;50.876;7.012;2023-06-14T04:29:05;0.53;;;0.50;;
18580;SDS011;9420;50.876;7.012;2023-06-14T04:31:33;0.50;;;0.50;;
18580;SDS011;9420;50.876;7.012;2023-06-14T04:34:03;3.33;;;1.90;;
18580;SDS011;9420;50.876;7.012;2023-06-14T04:36:31;0.30;;;0.30;;
18580;SDS011;9420;50.876;7.012;2023-06-14T04:38:59;0.57;;;0.57;;
18580;SDS011;9420;50.876;7.012;2023-06-14T04:41:28;0.70;;;0.70;;
18580;SDS011;9420;50.876;7.012;2023-06-14T04:43:55;0.37;;;0.37;;
18580;SDS011;9420;50.876;7.012;2023-06-14T04:46:26;0.63;;;0.63;;
18580;SDS011;9420;50.876;7.012;2023-06-14T04:48:54;0.40;;;0.40;;
18580;SDS011;9420;50.876;7.012;2023-06-14T04:51:23;0.83;;;0.77;;
18580;SDS011;9420;50.876;7.012;2023-06-14T04:53:54;1.30;;;0.67;;
18580;SDS011;9420;50.876;7.012;2023-06-14T04:56:23;0.50;;;0.50;;
18580;SDS011;9420;50.876;7.012;2023-06-14T04:58:51;0.77;;;0.77;;
18580;SDS011;9420;50.876;7.012;2023-06-14T05:01:19;0.30;;;0.30;;
18580;SDS011;9420;50.876;7.012;2023-06-14T05:03:48;0.47;;;0.47;;
18580;SDS011;9420;50.876;7.012;2023-06-14T05:06:15;0.50;;;0.50;;
18580;SDS011;9420;50.876;7.012;2023-06-14T05:08:44;1.57;;;0.80;;
18580;SDS011;9420;50.876;7.012;2023-06-14T05:11:12;1.63;;;1.20;;
18580;SDS011;9420;50.876;7.012;2023-06-14T05:13:39;0.60;;;0.60;;
18580;SDS011;9420;50.876;7.012;2023-06-14T05:16:07;0.47;;;0.47;;
18580;SDS011;9420;50.876;7.012;2023-06-14T05:18:35;0.80;;;0.80;;
18580;SDS011;9420;50.876;7.012;2023-06-14T05:21:02;6.33;;;0.83;;
18580;SDS011;9420;50.876;7.012;2023-06-14T05:23:30;0.77;;;0.77;;
18580;SDS011;9420;50.876;7.012;2023-06-14T05:25:59;0.70;;;0.70;;
18580;SDS011;9420;50.876;7.012;2023-06-14T05:28:27;1.33;;;1.13;;
18580;SDS011;9420;50.876;7.012;2023-06-14T05:30:55;1.23;;;1.13;;
18580;SDS011;9420;50.876;7.012;2023-06-14T05:33:23;1.03;;;1.00;;
18580;SDS011;9420;50.876;7.012;2023-06-14T05:35:50;2.43;;;1.10;;
18580;SDS011;9420;50.876;7.012;2023-06-14T05:38:18;0.60;;;0.40;;
18580;SDS011;9420;50.876;7.012;2023-06-14T05:40:45;0.30;;;0.30;;
18580;SDS011;9420;50.876;7.012;2023-06-14T05:43:14;0.73;;;0.63;;
18580;SDS011;9420;50.876;7.012;2023-06-14T05:45:41;0.73;;;0.67;;
18580;SDS011;9420;50.876;7.012;2023-06-14T05:48:08;3.73;;;0.60;;
18580;SDS011;9420;50.876;7.012;2023-06-14T05:50:36;0.73;;;0.73;;
18580;SDS011;9420;50.876;7.012;2023-06-14T05:53:03;0.20;;;0.20;;
18580;SDS011;9420;50.876;7.012;2023-06-14T05:55:30;0.40;;;0.40;;
18580;SDS011;9420;50.876;7.012;2023-06-14T05:57:57;0.50;;;0.50;;
18580;SDS011;9420;50.876;7.012;2023-06-14T06:00:27;0.57;;;0.53;;
18580;SDS011;9420;50.876;7.012;2023-06-14T06:02:54;0.40;;;0.40;;
18580;SDS011;9420;50.876;7.012;2023-06-14T06:05:23;0.33;;;0.33;;
18580;SDS011;9420;50.876;7.012;2023-06-14T06:07:51;1.23;;;1.03;;
18580;SDS011;9420;50.876;7.012;2023-06-14T06:10:18;2.73;;;1.90;;
18580;SDS011;9420;50.876;7.012;2023-06-14T06:12:46;0.40;;;0.37;;
18580;SDS011;9420;50.876;7.012;2023-06-14T06:15:14;2.10;;;1.07;;
18580;SDS011;9420;50.876;7.012;2023-06-14T06:17:43;0.23;;;0.20;;
18580;SDS011;9420;50.876;7.012;2023-06-14T06:20:10;0.13;;;0.13;;
18580;SDS011;9420;50.876;7.012;2023-06-14T06:22:38;1.13;;;0.90;;
18580;SDS011;9420;50.876;7.012;2023-06-14T06:25:06;0.20;;;0.20;;
18580;SDS011;9420;50.876;7.012;2023-06-14T06:27:33;0.63;;;0.63;;
18580;SDS011;9420;50.876;7.012;2023-06-14T06:30:02;0.40;;;0.40;;
18580;SDS011;9420;50.876;7.012;2023-06-14T06:32:30;0.30;;;0.30;;
18580;SDS011;9420;50.876;7.012;2023-06-14T06:34:59;0.63;;;0.63;;
18580;SDS011;9420;50.876;7.012;2023-06-14T06:37:26;0.40;;;0.40;;
18580;SDS011;9420;50.876;7.012;2023-06-14T06:39:54;0.23;;;0.23;;
18580;SDS011;9420;50.876;7.012;2023-06-14T06:42:21;0.70;;;0.70;;
18580;SDS011;9420;50.876;7.012;2023-06-14T06:44:48;5.00;;;1.73;;
18580;SDS011;9420;50.876;7.012;2023-06-14T06:47:15;0.20;;;0.20;;
18580;SDS011;9420;50.876;7.012;2023-06-14T06:49:43;0.40;;;0.40;;
18580;SDS011;9420;50.876;7.012;2023-06-14T06:52:11;1.90;;;0.17;;
18580;SDS011;9420;50.876;7.012;2023-06-14T06:54:38;0.67;;;0.67;;
18580;SDS011;9420;50.876;7.012;2023-06-14T06:57:06;1.40;;;0.97;;
18580;SDS011;9420;50.876;7.012;2023-06-14T06:59:33;0.87;;;0.77;;
18580;SDS011;9420;50.876;7.012;2023-06-14T07:02:01;0.67;;;0.53;;
18580;SDS011;9420;50.876;7.012;2023-06-14T07:04:28;0.20;;;0.20;;
18580;SDS011;9420;50.876;7.012;2023-06-14T07:06:56;6.93;;;2.53;;
18580;SDS011;9420;50.876;7.012;2023-06-14T07:09:25;6.38;;;3.35;;
18580;SDS011;9420;50.876;7.012;2023-06-14T07:11:52;17.43;;;3.23;;
18580;SDS011;9420;50.876;7.012;2023-06-14T07:16:51;5.17;;;3.03;;
18580;SDS011;9420;50.876;7.012;2023-06-14T07:19:18;4.37;;;2.73;;
18580;SDS011;9420;50.876;7.012;2023-06-14T07:21:45;6.70;;;3.03;;
18580;SDS011;9420;50.876;7.012;2023-06-14T07:24:12;6.33;;;2.70;;
18580;SDS011;9420;50.876;7.012;2023-06-14T07:26:39;9.33;;;2.57;;
18580;SDS011;9420;50.876;7.012;2023-06-14T07:29:06;4.77;;;2.57;;
18580;SDS011;9420;50.876;7.012;2023-06-14T07:31:32;3.80;;;2.80;;
18580;SDS011;9420;50.876;7.012;2023-06-14T07:34:01;5.13;;;2.33;;
18580;SDS011;9420;50.876;7.012;2023-06-14T07:36:27;2.47;;;2.07;;
18580;SDS011;9420;50.876;7.012;2023-06-14T07:38:54;3.67;;;2.43;;
18580;SDS011;9420;50.876;7.012;2023-06-14T07:41:21;4.40;;;2.60;;
18580;SDS011;9420;50.876;7.012;2023-06-14T07:43:47;3.17;;;2.13;;
18580;SDS011;9420;50.876;7.012;2023-06-14T07:46:14;4.63;;;2.67;;
18580;SDS011;9420;50.876;7.012;2023-06-14T07:48:41;3.83;;;2.23;;
18580;SDS011;9420;50.876;7.012;2023-06-14T07:51:09;3.67;;;2.60;;
18580;SDS011;9420;50.876;7.012;2023-06-14T07:53:36;5.77;;;2.13;;
18580;SDS011;9420;50.876;7.012;2023-06-14T07:56:02;4.40;;;1.93;;
18580;SDS011;9420;50.876;7.012;2023-06-14T07:58:29;6.67;;;3.00;;
18580;SDS011;9420;50.876;7.012;2023-06-14T08:00:56;5.10;;;2.20;;
18580;SDS011;9420;50.876;7.012;2023-06-14T08:03:22;2.53;;;1.80;;
18580;SDS011;9420;50.876;7.012;2023-06-14T08:05:50;2.60;;;1.87;;
18580;SDS011;9420;50.876;7.012;2023-06-14T08:08:18;3.90;;;2.00;;
18580;SDS011;9420;50.876;7.012;2023-06-14T08:10:45;3.77;;;1.93;;
18580;SDS011;9420;50.876;7.012;2023-06-14T08:13:11;2.67;;;2.03;;
18580;SDS011;9420;50.876;7.012;2023-06-14T08:15:38;2.15;;;1.80;;
18580;SDS011;9420;50.876;7.012;2023-06-14T08:18:04;1.90;;;1.48;;
18580;SDS011;9420;50.876;7.012;2023-06-14T08:20:31;2.05;;;1.85;;
18580;SDS011;9420;50.876;7.012;2023-06-14T08:23:00;2.13;;;1.92;;
18580;SDS011;9420;50.876;7.012;2023-06-14T08:25:28;2.90;;;1.98;;
18580;SDS011;9420;50.876;7.012;2023-06-14T08:27:54;1.95;;;1.75;;
18580;SDS011;9420;50.876;7.012;2023-06-14T08:30:21;4.20;;;1.70;;
18580;SDS011;9420;50.876;7.012;2023-06-14T08:32:47;4.18;;;1.88;;
18580;SDS011;9420;50.876;7.012;2023-06-14T08:35:14;2.15;;;1.50;;
18580;SDS011;9420;50.876;7.012;2023-06-14T08:37:41;4.45;;;1.85;;
18580;SDS011;9420;50.876;7.012;2023-06-14T08:40:18;2.95;;;1.77;;
18580;SDS011;9420;50.876;7.012;2023-06-14T08:42:50;1.75;;;1.55;;
18580;SDS011;9420;50.876;7.012;2023-06-14T08:45:18;3.72;;;2.10;;
18580;SDS011;9420;50.876;7.012;2023-06-14T08:47:46;2.70;;;1.70;;
18580;SDS011;9420;50.876;7.012;2023-06-14T08:50:16;3.97;;;2.40;;
18580;SDS011;9420;50.876;7.012;2023-06-14T08:52:46;3.65;;;1.73;;
18580;SDS011;9420;50.876;7.012;2023-06-14T08:55:18;2.30;;;1.30;;
18580;SDS011;9420;50.876;7.012;2023-06-14T08:57:45;4.88;;;1.80;;
18580;SDS011;9420;50.876;7.012;2023-06-14T09:00:16;1.98;;;1.63;;
18580;SDS011;9420;50.876;7.012;2023-06-14T09:02:43;6.07;;;2.15;;
18580;SDS011;9420;50.876;7.012;2023-06-14T09:05:10;3.17;;;1.73;;
18580;SDS011;9420;50.876;7.012;2023-06-14T09:07:38;3.05;;;1.90;;
18580;SDS011;9420;50.876;7.012;2023-06-14T09:10:07;2.17;;;1.58;;
18580;SDS011;9420;50.876;7.012;2023-06-14T09:12:35;2.40;;;2.03;;
18580;SDS011;9420;50.876;7.012;2023-06-14T09:15:02;1.83;;;1.58;;
18580;SDS011;9420;50.876;7.012;2023-06-14T09:17:33;4.53;;;1.67;;
18580;SDS011;9420;50.876;7.012;2023-06-14T09:20:00;2.17;;;1.77;;
18580;SDS011;9420;50.876;7.012;2023-06-14T09:22:30;3.13;;;1.40;;
18580;SDS011;9420;50.876;7.012;2023-06-14T09:24:57;1.88;;;1.27;;
18580;SDS011;9420;50.876;7.012;2023-06-14T09:27:24;4.20;;;1.50;;
18580;SDS011;9420;50.876;7.012;2023-06-14T09:29:51;3.08;;;1.20;;
18580;SDS011;9420;50.876;7.012;2023-06-14T09:32:18;2.17;;;1.40;;
18580;SDS011;9420;50.876;7.012;2023-06-14T09:34:46;5.53;;;1.48;;
18580;SDS011;9420;50.876;7.012;2023-06-14T09:37:13;4.18;;;1.92;;
18580;SDS011;9420;50.876;7.012;2023-06-14T09:39:52;2.53;;;1.73;;
18580;SDS011;9420;50.876;7.012;2023-06-14T09:42:19;2.83;;;1.42;;
18580;SDS011;9420;50.876;7.012;2023-06-14T09:44:46;2.38;;;1.52;;
18580;SDS011;9420;50.876;7.012;2023-06-14T09:47:14;2.08;;;1.52;;
18580;SDS011;9420;50.876;7.012;2023-06-14T09:49:41;2.55;;;1.80;;
18580;SDS011;9420;50.876;7.012;2023-06-14T09:52:10;3.35;;;1.70;;
18580;SDS011;9420;50.876;7.012;2023-06-14T09:54:41;1.92;;;1.48;;
18580;SDS011;9420;50.876;7.012;2023-06-14T09:57:09;2.80;;;1.77;;
18580;SDS011;9420;50.876;7.012;2023-06-14T09:59:37;1.63;;;1.42;;
18580;SDS011;9420;50.876;7.012;2023-06-14T10:02:09;4.13;;;1.90;;
18580;SDS011;9420;50.876;7.012;2023-06-14T10:04:40;6.68;;;1.73;;
18580;SDS011;9420;50.876;7.012;2023-06-14T10:07:14;1.83;;;1.60;;
18580;SDS011;9420;50.876;7.012;2023-06-14T10:09:45;1.38;;;1.17;;
18580;SDS011;9420;50.876;7.012;2023-06-14T10:12:15;1.77;;;1.40;;
18580;SDS011;9420;50.876;7.012;2023-06-14T10:14:46;2.97;;;1.50;;
18580;SDS011;9420;50.876;7.012;2023-06-14T10:17:17;2.10;;;1.70;;
18580;SDS011;9420;50.876;7.012;2023-06-14T10:19:53;3.30;;;1.83;;
18580;SDS011;9420;50.876;7.012;2023-06-14T10:22:26;2.22;;;1.55;;
18580;SDS011;9420;50.876;7.012;2023-06-14T10:24:58;4.78;;;1.73;;
18580;SDS011;9420;50.876;7.012;2023-06-14T10:27:26;3.13;;;1.40;;
18580;SDS011;9420;50.876;7.012;2023-06-14T10:30:02;1.67;;;1.10;;
18580;SDS011;9420;50.876;7.012;2023-06-14T10:32:31;2.55;;;1.80;;
18580;SDS011;9420;50.876;7.012;2023-06-14T10:34:58;2.92;;;1.42;;
18580;SDS011;9420;50.876;7.012;2023-06-14T10:37:28;2.10;;;1.63;;
18580;SDS011;9420;50.876;7.012;2023-06-14T10:39:55;3.15;;;1.40;;
18580;SDS011;9420;50.876;7.012;2023-06-14T10:42:23;2.03;;;1.63;;
18580;SDS011;9420;50.876;7.012;2023-06-14T10:44:54;2.80;;;1.40;;
18580;SDS011;9420;50.876;7.012;2023-06-14T10:47:23;1.65;;;1.55;;
18580;SDS011;9420;50.876;7.012;2023-06-14T10:49:54;2.05;;;1.50;;
18580;SDS011;9420;50.876;7.012;2023-06-14T10:52:25;1.92;;;1.50;;
18580;SDS011;9420;50.876;7.012;2023-06-14T10:54:55;2.83;;;1.38;;
18580;SDS011;9420;50.876;7.012;2023-06-14T10:57:26;1.88;;;1.38;;
18580;SDS011;9420;50.876;7.012;2023-06-14T10:59:52;2.72;;;1.30;;
18580;SDS011;9420;50.876;7.012;2023-06-14T11:05:21;2.72;;;1.63;;
18580;SDS011;9420;50.876;7.012;2023-06-14T11:07:58;1.45;;;1.13;;
18580;SDS011;9420;50.876;7.012;2023-06-14T11:10:37;2.00;;;1.35;;
18580;SDS011;9420;50.876;7.012;2023-06-14T11:13:05;3.35;;;1.33;;
18580;SDS011;9420;50.876;7.012;2023-06-14T11:15:32;1.90;;;1.48;;
18580;SDS011;9420;50.876;7.012;2023-06-14T11:18:00;5.30;;;1.88;;
18580;SDS011;9420;50.876;7.012;2023-06-14T11:20:29;2.40;;;1.58;;
18580;SDS011;9420;50.876;7.012;2023-06-14T11:22:58;5.00;;;2.00;;
18580;SDS011;9420;50.876;7.012;2023-06-14T11:25:26;3.35;;;2.05;;
18580;SDS011;9420;50.876;7.012;2023-06-14T11:27:53;2.38;;;1.40;;
18580;SDS011;9420;50.876;7.012;2023-06-14T11:30:21;1.67;;;1.58;;
18580;SDS011;9420;50.876;7.012;2023-06-14T11:32:48;2.25;;;1.15;;
18580;SDS011;9420;50.876;7.012;2023-06-14T11:35:17;2.60;;;1.30;;
18580;SDS011;9420;50.876;7.012;2023-06-14T11:37:44;1.55;;;1.25;;
18580;SDS011;9420;50.876;7.012;2023-06-14T11:40:14;1.55;;;1.20;;
18580;SDS011;9420;50.876;7.012;2023-06-14T11:42:41;1.33;;;1.23;;
18580;SDS011;9420;50.876;7.012;2023-06-14T11:45:08;5.53;;;1.20;;
18580;SDS011;9420;50.876;7.012;2023-06-14T11:47:35;1.85;;;1.63;;
18580;SDS011;9420;50.876;7.012;2023-06-14T11:50:04;3.65;;;1.17;;
18580;SDS011;9420;50.876;7.012;2023-06-14T11:52:33;1.98;;;1.10;;
18580;SDS011;9420;50.876;7.012;2023-06-14T11:55:00;2.40;;;1.20;;
18580;SDS011;9420;50.876;7.012;2023-06-14T11:57:31;2.80;;;0.95;;
18580;SDS011;9420;50.876;7.012;2023-06-14T12:00:00;1.42;;;1.23;;
18580;SDS011;9420;50.876;7.012;2023-06-14T12:02:31;2.40;;;1.08;;
18580;SDS011;9420;50.876;7.012;2023-06-14T12:05:04;1.15;;;1.05;;
18580;SDS011;9420;50.876;7.012;2023-06-14T12:07:36;4.18;;;1.25;;
18580;SDS011;9420;50.876;7.012;2023-06-14T12:10:05;1.20;;;0.95;;
18580;SDS011;9420;50.876;7.012;2023-06-14T12:12:36;2.55;;;0.93;;
18580;SDS011;9420;50.876;7.012;2023-06-14T12:15:03;1.15;;;1.05;;
18580;SDS011;9420;50.876;7.012;2023-06-14T12:17:31;1.25;;;0.98;;
18580;SDS011;9420;50.876;7.012;2023-06-14T12:19:58;2.28;;;1.10;;
18580;SDS011;9420;50.876;7.012;2023-06-14T12:22:31;1.05;;;0.90;;
18580;SDS011;9420;50.876;7.012;2023-06-14T12:24:58;1.23;;;0.77;;
18580;SDS011;9420;50.876;7.012;2023-06-14T12:27:25;1.20;;;1.10;;
18580;SDS011;9420;50.876;7.012;2023-06-14T12:29:59;2.55;;;1.00;;
18580;SDS011;9420;50.876;7.012;2023-06-14T12:32:27;2.08;;;1.15;;
18580;SDS011;9420;50.876;7.012;2023-06-14T12:34:54;1.00;;;0.90;;
18580;SDS011;9420;50.876;7.012;2023-06-14T12:37:20;2.28;;;1.00;;
18580;SDS011;9420;50.876;7.012;2023-06-14T12:39:47;1.65;;;0.77;;
18580;SDS011;9420;50.876;7.012;2023-06-14T12:42:13;1.27;;;0.88;;
18580;SDS011;9420;50.876;7.012;2023-06-14T12:44:40;1.38;;;0.90;;
18580;SDS011;9420;50.876;7.012;2023-06-14T12:47:09;0.50;;;0.47;;
18580;SDS011;9420;50.876;7.012;2023-06-14T12:49:35;2.10;;;1.30;;
18580;SDS011;9420;50.876;7.012;2023-06-14T12:52:02;3.88;;;1.08;;
18580;SDS011;9420;50.876;7.012;2023-06-14T12:54:29;2.50;;;0.93;;
18580;SDS011;9420;50.876;7.012;2023-06-14T12:56:55;2.40;;;0.90;;
18580;SDS011;9420;50.876;7.012;2023-06-14T12:59:22;0.82;;;0.77;;
18580;SDS011;9420;50.876;7.012;2023-06-14T13:01:48;3.47;;;0.63;;
18580;SDS011;9420;50.876;7.012;2023-06-14T13:04:16;0.82;;;0.70;;
18580;SDS011;9420;50.876;7.012;2023-06-14T13:06:43;2.20;;;0.85;;
18580;SDS011;9420;50.876;7.012;2023-06-14T13:09:09;2.58;;;0.63;;
18580;SDS011;9420;50.876;7.012;2023-06-14T13:11:36;1.33;;;1.23;;
18580;SDS011;9420;50.876;7.012;2023-06-14T13:14:03;2.55;;;0.80;;
18580;SDS011;9420;50.876;7.012;2023-06-14T13:16:30;1.73;;;1.08;;
18580;SDS011;9420;50.876;7.012;2023-06-14T13:18:56;1.38;;;0.88;;
18580;SDS011;9420;50.876;7.012;2023-06-14T13:21:24;2.08;;;0.90;;
18580;SDS011;9420;50.876;7.012;2023-06-14T13:23:51;1.48;;;0.80;;
18580;SDS011;9420;50.876;7.012;2023-06-14T13:26:18;2.60;;;1.05;;
18580;SDS011;9420;50.876;7.012;2023-06-14T13:28:46;4.00;;;1.00;;
18580;SDS011;9420;50.876;7.012;2023-06-14T13:31:13;2.45;;;1.00;;
18580;SDS011;9420;50.876;7.012;2023-06-14T13:33:39;2.28;;;1.08;;
18580;SDS011;9420;50.876;7.012;2023-06-14T13:36:07;1.83;;;0.90;;
18580;SDS011;9420;50.876;7.012;2023-06-14T13:38:36;0.90;;;0.90;;
18580;SDS011;9420;50.876;7.012;2023-06-14T13:41:03;1.55;;;1.35;;
18580;SDS011;9420;50.876;7.012;2023-06-14T13:43:30;1.23;;;0.95;;
18580;SDS011;9420;50.876;7.012;2023-06-14T13:45:56;1.85;;;1.17;;
18580;SDS011;9420;50.876;7.012;2023-06-14T13:48:23;2.35;;;1.30;;
18580;SDS011;9420;50.876;7.012;2023-06-14T13:50:50;1.60;;;0.88;;
18580;SDS011;9420;50.876;7.012;2023-06-14T13:53:16;2.03;;;1.02;;
18580;SDS011;9420;50.876;7.012;2023-06-14T13:55:44;2.42;;;1.30;;
18580;SDS011;9420;50.876;7.012;2023-06-14T13:58:11;4.85;;;1.27;;
18580;SDS011;9420;50.876;7.012;2023-06-14T14:00:39;1.92;;;1.25;;
18580;SDS011;9420;50.876;7.012;2023-06-14T14:03:06;1.05;;;1.00;;
18580;SDS011;9420;50.876;7.012;2023-06-14T14:05:33;1.48;;;1.10;;
18580;SDS011;9420;50.876;7.012;2023-06-14T14:08:00;2.80;;;1.30;;
18580;SDS011;9420;50.876;7.012;2023-06-14T14:10:27;1.52;;;1.23;;
18580;SDS011;9420;50.876;7.012;2023-06-14T14:12:55;1.73;;;1.13;;
18580;SDS011;9420;50.876;7.012;2023-06-14T14:15:21;2.40;;;1.15;;
18580;SDS011;9420;50.876;7.012;2023-06-14T14:17:48;3.00;;;1.17;;
18580;SDS011;9420;50.876;7.012;2023-06-14T14:20:15;1.50;;;1.40;;
18580;SDS011;9420;50.876;7.012;2023-06-14T14:22:42;1.30;;;0.95;;
18580;SDS011;9420;50.876;7.012;2023-06-14T14:25:08;1.20;;;1.10;;
18580;SDS011;9420;50.876;7.012;2023-06-14T14:27:35;2.33;;;1.02;;
18580;SDS011;9420;50.876;7.012;2023-06-14T14:30:03;1.02;;;0.88;;
18580;SDS011;9420;50.876;7.012;2023-06-14T14:32:30;1.25;;;1.13;;
18580;SDS011;9420;50.876;7.012;2023-06-14T14:34:57;1.83;;;0.88;;
18580;SDS011;9420;50.876;7.012;2023-06-14T14:37:24;2.20;;;1.15;;
18580;SDS011;9420;50.876;7.012;2023-06-14T14:39:51;2.38;;;1.45;;
18580;SDS011;9420;50.876;7.012;2023-06-14T14:42:17;1.05;;;0.95;;
18580;SDS011;9420;50.876;7.012;2023-06-14T14:44:44;1.67;;;1.15;;
18580;SDS011;9420;50.876;7.012;2023-06-14T14:47:12;1.13;;;0.95;;
18580;SDS011;9420;50.876;7.012;2023-06-14T14:49:39;2.45;;;1.02;;
18580;SDS011;9420;50.876;7.012;2023-06-14T14:52:07;1.50;;;1.10;;
18580;SDS011;9420;50.876;7.012;2023-06-14T14:54:34;3.38;;;1.67;;
18580;SDS011;9420;50.876;7.012;2023-06-14T14:57:01;1.15;;;0.90;;
18580;SDS011;9420;50.876;7.012;2023-06-14T14:59:27;1.58;;;1.00;;
18580;SDS011;9420;50.876;7.012;2023-06-14T15:01:54;2.55;;;1.38;;
18580;SDS011;9420;50.876;7.012;2023-06-14T15:04:21;3.42;;;1.30;;
18580;SDS011;9420;50.876;7.012;2023-06-14T15:06:48;4.13;;;1.17;;
18580;SDS011;9420;50.876;7.012;2023-06-14T15:09:14;1.30;;;0.98;;
18580;SDS011;9420;50.876;7.012;2023-06-14T15:11:41;2.35;;;1.52;;